Time;durP1;ratioP1;P1;durP2;ratioP2;P2;SDS_P1;SDS_P2;PMS_P1;PMS_P2;Temp;Humidity;BMP_temperature;BMP_pressure;BME280_temperature;BME280_humidity;BME280_pressure;Samples;Min_cycle;Max_cycle;Signal;HPM_P1;HPM_P2
2022/04/30 00:02:13;;;;;;;5.15;3.92;;;;;;;18.02;51.78;100000.22;5031402;28;20107;-86
2022/04/30 00:04:44;;;;;;;5.80;4.43;;;;;;;17.27;51.75;99888.84;5013713;28;20156;-86
2022/04/30 00:07:13;;;;;;;4.95;3.75;;;;;;;17.96;51.80;100002.94;5031447;28;20026;-86
2022/04/30 00:09:38;;;;;;;7.20;5.57;;;;;;;17.98;51.71;99996.34;5031330;28;20056;-86
2022/04/30 00:12:04;;;;;;;7.72;6.63;;;;;;;17.99;51.79;99999.84;5031168;28;20517;-86
2022/04/30 00:14:30;;;;;;;9.20;8.10;;;;;;;17.11;51.68;99896.31;5031089;28;20017;-87
2022/04/30 00:16:56;;;;;;;15.25;9.20;;;;;;;17.62;51.97;99951.50;5030730;28;20108;-87
2022/04/30 00:19:23;;;;;;;10.45;8.98;;;;;;;17.22;51.98;99899.34;5013037;28;20064;-87
2022/04/30 00:21:49;;;;;;;8.27;7.47;;;;;;;17.90;52.15;100003.81;5013318;28;20029;-87
2022/04/30 00:24:15;;;;;;;8.45;6.22;;;;;;;17.23;52.07;99912.47;5014622;28;20091;-87
2022/04/30 00:26:40;;;;;;;7.40;5.57;;;;;;;17.76;52.47;99987.81;5034829;28;20453;-86
2022/04/30 00:29:07;;;;;;;6.22;5.47;;;;;;;16.91;52.28;99857.38;5034546;28;20026;-86
2022/04/30 00:31:33;;;;;;;9.32;6.63;;;;;;;17.45;52.64;99955.69;5034076;28;20100;-87
2022/04/30 00:34:00;;;;;;;8.82;7.95;;;;;;;17.80;52.17;100009.56;5034341;28;20053;-86
2022/04/30 00:36:26;;;;;;;9.13;8.23;;;;;;;17.47;52.48;99966.97;5034016;28;20029;-87
2022/04/30 00:38:51;;;;;;;9.88;8.45;;;;;;;16.50;52.21;99784.69;5016100;28;20048;-87
2022/04/30 00:41:17;;;;;;;12.73;11.32;;;;;;;17.53;52.32;99973.31;5016382;28;20048;-87
2022/04/30 00:43:47;;;;;;;12.27;11.07;;;;;;;17.44;52.60;99941.53;5033882;28;20423;-87
2022/04/30 00:46:13;;;;;;;11.27;8.60;;;;;;;17.45;52.60;99947.69;5034244;28;20082;-86
2022/04/30 00:48:39;;;;;;;8.45;7.07;;;;;;;17.73;52.38;99982.91;5034528;28;20475;-86
2022/04/30 00:51:09;;;;;;;10.73;5.82;;;;;;;17.03;52.31;99861.84;5034242;28;20100;-86
2022/04/30 00:53:40;;;;;;;6.80;4.88;;;;;;;17.36;52.58;99917.75;5035036;28;20470;-87
2022/04/30 00:56:13;;;;;;;8.90;4.50;;;;;;;17.29;52.34;99916.16;5016061;28;20113;-86
2022/04/30 00:58:41;;;;;;;5.88;4.47;;;;;;;17.73;52.72;99982.91;5016287;28;20506;-87
2022/04/30 01:01:06;;;;;;;6.90;4.25;;;;;;;17.42;52.77;99937.44;5033881;28;20029;-86
2022/04/30 01:03:32;;;;;;;6.75;4.68;;;;;;;17.58;52.77;99981.50;5034021;28;20490;-87
2022/04/30 01:06:01;;;;;;;6.63;4.40;;;;;;;16.89;52.86;99865.59;5033973;28;20025;-87
2022/04/30 01:08:28;;;;;;;6.70;4.90;;;;;;;16.71;52.89;99834.28;5033870;28;20059;-87
2022/04/30 01:10:55;;;;;;;5.68;4.10;;;;;;;16.51;53.04;99805.00;5033924;28;20025;-86
2022/04/30 01:13:20;;;;;;;5.18;4.30;;;;;;;17.36;52.99;99944.44;5033859;28;20029;-86
2022/04/30 01:15:46;;;;;;;7.10;4.30;;;;;;;17.53;53.11;99967.97;5016195;28;20040;-87
2022/04/30 01:18:12;;;;;;;5.70;4.50;;;;;;;16.09;52.96;99753.03;5034142;28;20079;-86
2022/04/30 01:20:46;;;;;;;5.28;3.92;;;;;;;17.14;53.44;99914.56;5016018;28;20033;-87
2022/04/30 01:23:13;;;;;;;5.07;3.90;;;;;;;17.14;53.36;99919.09;5015911;28;20102;-86
2022/04/30 01:25:40;;;;;;;6.07;4.28;;;;;;;17.45;53.56;99977.88;5033567;28;20025;-86
2022/04/30 01:28:06;;;;;;;7.47;4.43;;;;;;;16.73;53.65;99866.88;5033588;28;20457;-87
2022/04/30 01:30:32;;;;;;;5.35;4.32;;;;;;;17.08;53.46;99909.22;5033618;28;20034;-87
2022/04/30 01:38:27;;;;;;;8.13;4.43;;;;;;;16.77;53.68;99856.63;5033411;28;20032;-87
2022/04/30 01:40:52;;;;;;;7.38;5.03;;;;;;;17.41;53.76;99952.63;5033247;28;20018;-86
2022/04/30 01:43:19;;;;;;;6.35;4.45;;;;;;;17.04;53.90;99908.84;5033224;28;20031;-87
2022/04/30 01:45:45;;;;;;;7.90;4.43;;;;;;;17.32;54.23;99961.09;5015966;28;20029;-87
2022/04/30 01:48:14;;;;;;;7.07;5.47;;;;;;;17.31;54.27;99949.59;5032819;28;20421;-86
2022/04/30 01:50:41;;;;;;;8.32;5.28;;;;;;;16.35;54.44;99813.44;5032781;28;20021;-87
2022/04/30 01:53:06;;;;;;;6.70;4.15;;;;;;;16.96;54.42;99914.41;5032472;28;20025;-86
2022/04/30 01:55:32;;;;;;;5.43;4.93;;;;;;;16.87;54.63;99888.19;5032653;28;20032;-86
2022/04/30 01:57:57;;;;;;;5.72;5.03;;;;;;;16.69;54.62;99865.66;5032703;28;20056;-87
2022/04/30 02:00:23;;;;;;;6.80;4.97;;;;;;;17.14;54.57;99948.44;5015099;28;20028;-86
2022/04/30 02:02:51;;;;;;;7.78;5.20;;;;;;;17.12;54.83;99951.31;5032602;28;20044;-86
2022/04/30 02:05:19;;;;;;;6.22;4.75;;;;;;;16.69;54.61;99892.34;5014803;28;20017;-86
2022/04/30 02:08:00;;;;;;;5.07;4.57;;;;;;;16.48;54.80;99839.25;5032182;28;20063;-87
2022/04/30 02:10:26;;;;;;;8.52;4.80;;;;;;;17.10;54.96;99950.72;5032181;28;20025;-86
2022/04/30 02:12:52;;;;;;;7.75;4.78;;;;;;;16.97;55.25;99950.72;5032355;28;20029;-86
2022/04/30 02:15:19;;;;;;;6.45;4.88;;;;;;;16.36;55.09;99846.25;5032144;28;20164;-86
2022/04/30 02:17:49;;;;;;;5.30;4.80;;;;;;;17.00;55.15;99960.16;5014369;28;20022;-86
2022/04/30 02:20:19;;;;;;;5.95;4.88;;;;;;;16.99;55.19;99945.19;5032148;28;20026;-86
2022/04/30 02:22:48;;;;;;;7.00;5.25;;;;;;;16.42;55.62;99861.41;5031857;28;20025;-87
2022/04/30 02:25:15;;;;;;;7.03;5.15;;;;;;;16.79;55.47;99906.03;5031934;28;20017;-86
2022/04/30 02:27:46;;;;;;;6.38;5.03;;;;;;;16.99;55.66;99943.31;5014098;28;20028;-86
2022/04/30 02:30:14;;;;;;;6.97;5.47;;;;;;;17.01;55.60;99943.13;5014252;28;20036;-86
2022/04/30 02:32:42;;;;;;;9.07;5.40;;;;;;;16.33;55.48;99836.78;5031845;28;20025;-86
2022/04/30 02:35:10;;;;;;;7.75;5.30;;;;;;;16.40;55.51;99909.56;5014198;28;20029;-86
2022/04/30 02:37:36;;;;;;;7.68;5.82;;;;;;;16.57;55.16;99871.81;5039017;28;20100;-87
2022/04/30 02:40:03;;;;;;;10.60;6.00;;;;;;;16.40;55.53;99858.13;5020839;28;20076;-85
2022/04/30 02:42:29;;;;;;;9.27;6.38;;;;;;;16.28;55.67;99843.78;5021099;28;20469;-87
2022/04/30 02:44:54;;;;;;;10.35;6.25;;;;;;;16.62;55.62;99899.50;5038435;28;20076;-87
2022/04/30 02:47:19;;;;;;;6.60;5.70;;;;;;;16.50;55.81;99899.31;5018706;28;20064;-86
2022/04/30 02:49:45;;;;;;;6.22;5.60;;;;;;;16.76;55.79;99926.97;5036362;28;20384;-86
2022/04/30 02:52:10;;;;;;;7.53;6.18;;;;;;;15.87;55.69;99800.38;5032424;28;20115;-85
2022/04/30 02:54:35;;;;;;;7.57;6.10;;;;;;;15.89;56.41;99843.59;5032005;28;20017;-86
2022/04/30 02:57:01;;;;;;;9.77;6.45;;;;;;;15.02;56.40;99700.00;5013803;28;20025;-85
2022/04/30 03:02:11;;;;;;;6.72;6.00;;;;;;;14.55;56.58;99627.34;5031665;28;20036;-86
2022/04/30 03:04:36;;;;;;;8.90;6.72;;;;;;;15.58;56.53;99806.91;5031584;28;20104;-86
2022/04/30 03:07:02;;;;;;;8.32;6.40;;;;;;;15.74;56.75;99823.53;5031244;28;20079;-85
2022/04/30 03:09:27;;;;;;;9.00;7.30;;;;;;;15.88;56.84;99855.28;5031258;28;20508;-87
2022/04/30 03:11:53;;;;;;;9.20;7.32;;;;;;;16.12;56.52;99880.47;5031759;28;20025;-86
2022/04/30 03:14:18;;;;;;;8.77;6.70;;;;;;;16.11;56.91;99889.50;5031296;28;20021;-86
2022/04/30 03:22:12;;;;;;;8.45;6.72;;;;;;;16.16;57.01;99924.31;5031964;28;20060;-87
2022/04/30 03:24:38;;;;;;;9.13;7.72;;;;;;;16.01;57.18;99902.41;5031575;28;20462;-87
2022/04/30 03:27:04;;;;;;;12.27;8.38;;;;;;;15.87;56.94;99880.25;5031411;28;20025;-87
2022/04/30 03:29:29;;;;;;;13.50;8.98;;;;;;;15.87;56.97;99893.56;5031454;28;20108;-86
2022/04/30 03:31:56;;;;;;;12.88;8.73;;;;;;;15.57;57.35;99850.50;5031376;28;20079;-86
2022/04/30 03:34:21;;;;;;;9.25;7.93;;;;;;;15.66;57.37;99855.69;5013646;28;20520;-87
2022/04/30 03:36:47;;;;;;;9.85;8.65;;;;;;;16.39;57.53;99974.56;5013450;28;20013;-86
2022/04/30 03:39:12;;;;;;;13.27;8.90;;;;;;;15.87;57.28;99914.06;5013804;28;20479;-86
2022/04/30 03:41:38;;;;;;;10.25;9.18;;;;;;;15.60;57.54;99859.94;5031094;28;20418;-87
2022/04/30 03:44:04;;;;;;;12.32;9.20;;;;;;;16.32;57.57;99986.22;5031131;28;20017;-86
2022/04/30 03:46:30;;;;;;;10.85;9.45;;;;;;;16.17;57.34;99952.59;5031410;28;20049;-86
2022/04/30 03:48:56;;;;;;;13.00;8.80;;;;;;;16.27;57.15;99975.34;5031037;28;20025;-86
2022/04/30 03:51:25;;;;;;;11.90;9.85;;;;;;;15.95;57.60;99913.88;5031174;28;20033;-86
2022/04/30 03:53:51;;;;;;;11.00;9.15;;;;;;;16.07;57.65;99948.69;5013371;28;20018;-87
2022/04/30 03:56:17;;;;;;;13.07;9.38;;;;;;;16.30;58.12;99996.25;5031164;28;20379;-87
2022/04/30 03:58:43;;;;;;;12.50;10.82;;;;;;;15.84;58.11;99944.56;5031361;28;20045;-86
2022/04/30 04:01:09;;;;;;;12.50;9.73;;;;;;;14.14;58.06;99667.22;5017146;28;20017;-87
2022/04/30 04:03:36;;;;;;;10.35;9.30;;;;;;;15.70;57.95;99912.81;5017221;28;20075;-87
2022/04/30 04:06:01;;;;;;;10.55;9.45;;;;;;;15.88;57.70;99939.66;5034893;28;20018;-86
2022/04/30 04:08:27;;;;;;;11.48;9.93;;;;;;;15.49;57.86;99877.28;5034853;28;20040;-87
2022/04/30 04:10:53;;;;;;;11.57;10.05;;;;;;;16.02;58.23;99970.63;5017187;28;20055;-87
2022/04/30 04:18:46;;;;;;;10.57;9.25;;;;;;;16.10;58.04;99949.13;5035098;28;20067;-87
2022/04/30 04:21:11;;;;;;;11.57;9.45;;;;;;;16.30;57.89;99989.09;5034759;28;20026;-87
2022/04/30 04:26:21;;;;;;;10.65;9.38;;;;;;;16.52;57.68;100013.72;5034866;28;20083;-86
2022/04/30 04:28:46;;;;;;;10.30;8.20;;;;;;;15.97;57.52;99905.66;5016540;28;20021;-86
2022/04/30 04:31:12;;;;;;;11.15;7.68;;;;;;;16.59;57.44;100003.88;5016708;28;20400;-86
2022/04/30 04:33:38;;;;;;;11.52;9.02;;;;;;;16.28;57.28;99953.00;5034344;28;20612;-86
2022/04/30 04:36:04;;;;;;;12.30;9.43;;;;;;;16.71;57.16;100010.25;5034248;28;20060;-87
2022/04/30 04:38:31;;;;;;;13.32;8.93;;;;;;;16.27;57.19;99932.72;5034143;28;20078;-86
2022/04/30 04:40:56;;;;;;;12.38;9.00;;;;;;;16.48;57.22;99962.66;5034174;28;20087;-87
2022/04/30 04:43:22;;;;;;;11.52;9.20;;;;;;;16.48;57.07;99943.19;5016393;28;20487;-86
2022/04/30 04:45:47;;;;;;;11.90;9.40;;;;;;;16.47;57.15;99945.03;5033995;28;20104;-87
2022/04/30 04:48:14;;;;;;;11.20;9.02;;;;;;;16.47;56.90;99958.38;5034178;28;20025;-87
2022/04/30 04:50:39;;;;;;;15.00;9.20;;;;;;;16.38;57.29;99970.25;5033913;28;20512;-87
2022/04/30 04:53:05;;;;;;;13.70;8.80;;;;;;;16.66;57.37;100009.25;5033757;28;20025;-87
2022/04/30 04:55:30;;;;;;;14.15;9.27;;;;;;;16.81;57.18;100031.19;5033627;28;20029;-87
2022/04/30 04:57:55;;;;;;;12.38;9.07;;;;;;;16.82;56.97;100012.31;5033678;28;20124;-87
2022/04/30 05:00:21;;;;;;;12.90;9.23;;;;;;;16.23;57.27;99934.97;5015954;28;20021;-86
2022/04/30 05:02:47;;;;;;;11.82;9.50;;;;;;;16.47;56.97;99965.53;5033651;28;20449;-86
2022/04/30 05:05:13;;;;;;;14.02;9.23;;;;;;;16.87;57.29;100011.69;5033610;28;20080;-87
2022/04/30 05:07:38;;;;;;;13.25;9.45;;;;;;;16.95;56.95;100014.13;5015957;28;20044;-87
2022/04/30 05:10:04;;;;;;;14.88;9.20;;;;;;;16.30;57.00;99916.31;5015620;28;20549;-86
2022/04/30 05:12:30;;;;;;;13.02;8.93;;;;;;;16.14;56.90;99864.28;5032986;28;20087;-86
2022/04/30 05:14:55;;;;;;;12.50;8.77;;;;;;;16.63;56.71;99941.13;5033509;28;20104;-87
2022/04/30 05:17:21;;;;;;;12.52;9.88;;;;;;;16.70;56.58;99939.28;5033739;28;20100;-86
2022/04/30 05:19:46;;;;;;;14.75;9.07;;;;;;;16.99;56.51;100004.69;5033486;28;20488;-87
2022/04/30 05:22:14;;;;;;;13.02;9.23;;;;;;;16.74;56.28;99935.19;5033968;28;20021;-87
2022/04/30 05:24:39;;;;;;;13.02;10.55;;;;;;;17.08;56.48;100015.94;5033325;28;20053;-86
2022/04/30 05:27:05;;;;;;;12.43;8.88;;;;;;;16.77;56.72;99952.63;5015940;28;20049;-86
2022/04/30 05:29:32;;;;;;;12.40;8.85;;;;;;;16.64;56.55;99941.94;5015697;28;20033;-86
2022/04/30 05:31:58;;;;;;;10.20;8.07;;;;;;;16.56;56.51;99955.50;5015612;28;20434;-87
2022/04/30 05:34:23;;;;;;;14.45;9.50;;;;;;;16.97;56.39;99980.06;5033514;28;20026;-87
2022/04/30 05:36:48;;;;;;;13.98;8.68;;;;;;;16.56;56.26;99897.66;5033308;28;20032;-86
2022/04/30 05:39:14;;;;;;;11.15;8.82;;;;;;;17.10;56.36;100012.06;5033372;28;20410;-87
2022/04/30 05:41:39;;;;;;;12.27;9.43;;;;;;;16.94;56.27;99969.00;5033112;28;20040;-87
2022/04/30 05:44:05;;;;;;;18.70;8.95;;;;;;;16.67;56.11;99918.38;5032996;28;20060;-86
2022/04/30 05:46:30;;;;;;;15.75;8.50;;;;;;;16.78;56.06;99928.41;5015320;28;20013;-86
2022/04/30 05:48:55;;;;;;;11.52;9.38;;;;;;;17.39;56.05;100020.63;5014953;28;20029;-87
2022/04/30 05:51:21;;;;;;;13.60;9.10;;;;;;;16.72;55.57;99925.75;5032851;28;20025;-87
2022/04/30 05:53:46;;;;;;;13.50;10.00;;;;;;;16.75;55.88;99944.81;5015082;28;20445;-87
2022/04/30 05:56:12;;;;;;;12.32;8.15;;;;;;;17.21;55.66;99985.78;5014771;28;20032;-86
2022/04/30 05:58:37;;;;;;;10.00;8.23;;;;;;;17.18;55.53;99975.53;5032417;28;20407;-86
2022/04/30 06:01:03;;;;;;;13.35;9.18;;;;;;;17.35;55.57;100051.44;5032478;28;20048;-86
2022/04/30 06:03:31;;;;;;;13.27;8.65;;;;;;;17.54;55.50;100045.19;5015347;28;20490;-87
2022/04/30 06:05:57;;;;;;;14.15;8.48;;;;;;;17.32;55.37;100017.16;5015342;28;20029;-86
2022/04/30 06:08:22;;;;;;;12.70;8.45;;;;;;;17.30;55.62;100008.53;5032741;28;20021;-87
2022/04/30 06:10:47;;;;;;;11.70;9.70;;;;;;;17.33;55.50;100018.78;5032954;28;20026;-87
2022/04/30 06:13:13;;;;;;;11.82;8.27;;;;;;;17.28;55.41;99989.25;5014857;28;20496;-87
2022/04/30 06:15:39;;;;;;;9.95;8.40;;;;;;;17.18;54.94;99970.19;5032721;28;20026;-86
2022/04/30 06:18:04;;;;;;;15.65;8.50;;;;;;;17.32;55.21;99969.09;5014686;28;20410;-86
2022/04/30 06:20:30;;;;;;;11.55;9.50;;;;;;;17.82;54.67;100060.13;5032573;28;20017;-86
2022/04/30 06:22:55;;;;;;;13.20;10.27;;;;;;;17.14;54.83;99945.78;5014616;28;20021;-87
2022/04/30 06:25:21;;;;;;;8.93;8.02;;;;;;;17.60;54.44;100020.31;5032468;28;20470;-87
2022/04/30 06:27:46;;;;;;;10.65;8.52;;;;;;;17.45;54.63;100011.75;5032550;28;20029;-86
2022/04/30 06:30:12;;;;;;;9.40;8.35;;;;;;;17.76;54.68;100059.94;5032542;28;20036;-86
2022/04/30 06:32:37;;;;;;;11.00;8.05;;;;;;;17.08;54.74;99927.91;5032461;28;20021;-87
2022/04/30 06:35:03;;;;;;;8.73;7.15;;;;;;;17.41;54.25;99975.84;5014578;28;20422;-87
2022/04/30 06:37:29;;;;;;;9.75;7.63;;;;;;;17.87;54.25;100050.47;5014740;28;20406;-86
2022/04/30 06:39:55;;;;;;;12.75;8.18;;;;;;;17.28;54.01;99946.53;5032868;28;20029;-85
2022/04/30 06:42:20;;;;;;;10.68;7.28;;;;;;;17.51;53.72;99980.72;5035123;28;20044;-87
2022/04/30 06:44:47;;;;;;;10.75;8.38;;;;;;;17.88;53.63;100046.75;5028763;28;20119;-86
2022/04/30 06:47:13;;;;;;;9.52;8.15;;;;;;;17.72;53.96;100015.97;5051826;28;20100;-87
2022/04/30 06:49:38;;;;;;;12.63;8.48;;;;;;;17.43;53.92;99950.56;5034291;28;20155;-86
2022/04/30 06:52:04;;;;;;;16.30;9.60;;;;;;;17.70;53.62;100001.22;5052236;28;20520;-86
2022/04/30 06:57:20;;;;;;;14.00;9.45;;;;;;;17.90;53.31;100009.16;5051895;28;20052;-88
2022/04/30 06:59:46;;;;;;;10.82;9.73;;;;;;;17.59;53.54;99956.44;5032858;28;20025;-86
2022/04/30 07:02:21;;;;;;;16.30;12.88;;;;;;;17.92;53.39;100017.75;5051644;28;20032;-86
2022/04/30 07:04:50;;;;;;;12.45;11.15;;;;;;;18.11;53.30;100040.88;5033494;28;20068;-86
2022/04/30 07:07:16;;;;;;;11.98;10.75;;;;;;;18.12;53.45;100037.16;5051660;28;20040;-86
2022/04/30 07:09:41;;;;;;;13.68;10.25;;;;;;;18.00;53.53;100034.34;5051584;28;20021;-86
2022/04/30 07:12:09;;;;;;;10.38;9.20;;;;;;;17.49;53.28;99946.22;5033714;28;20470;-87
2022/04/30 07:14:36;;;;;;;14.10;12.27;;;;;;;18.23;52.96;100046.34;5051853;28;20108;-87
2022/04/30 07:17:06;;;;;;;20.05;18.08;;;;;;;18.34;52.91;100051.81;5037879;28;20036;-86
2022/04/30 07:19:32;;;;;;;18.05;14.82;;;;;;;18.02;52.54;99978.84;5025888;28;20563;-86
2022/04/30 07:21:58;;;;;;;15.65;12.82;;;;;;;18.64;52.11;100045.91;5051471;28;20108;-86
2022/04/30 07:24:24;;;;;;;20.20;18.15;;;;;;;18.36;51.78;99993.63;5051702;28;20098;-86
2022/04/30 07:26:49;;;;;;;19.73;17.65;;;;;;;18.09;51.47;99944.88;5051682;28;20036;-87
2022/04/30 07:29:15;;;;;;;23.65;21.33;;;;;;;18.65;51.44;100035.00;5033948;28;20520;-86
2022/04/30 07:31:40;;;;;;;21.98;19.67;;;;;;;18.10;50.90;99932.34;5051828;28;20032;-86
2022/04/30 07:34:06;;;;;;;20.13;18.33;;;;;;;18.50;50.73;99982.81;5020764;28;20025;-86
2022/04/30 07:36:31;;;;;;;15.23;13.77;;;;;;;18.16;50.84;99926.13;5035937;28;20026;-87
2022/04/30 07:38:57;;;;;;;14.40;12.90;;;;;;;18.83;50.63;100042.25;5041324;28;20025;-87
2022/04/30 07:41:24;;;;;;;13.98;12.52;;;;;;;18.76;50.35;100041.47;5017759;28;20029;-86
2022/04/30 07:43:49;;;;;;;10.57;9.57;;;;;;;18.48;50.59;100009.78;5035357;28;20091;-88
2022/04/30 07:46:14;;;;;;;11.05;9.63;;;;;;;18.04;50.69;99941.22;5035346;28;20026;-87
2022/04/30 07:48:40;;;;;;;10.23;9.23;;;;;;;18.23;49.94;99934.91;5035107;28;20047;-86
2022/04/30 07:51:13;;;;;;;13.27;8.68;;;;;;;18.69;49.87;99998.75;5034856;28;20045;-88
2022/04/30 07:53:39;;;;;;;11.90;8.60;;;;;;;18.77;49.62;99973.56;5016808;28;20124;-87
2022/04/30 07:56:05;;;;;;;10.52;7.35;;;;;;;18.64;49.31;99931.72;5034374;28;20112;-87
2022/04/30 07:58:30;;;;;;;12.25;8.57;;;;;;;19.45;48.79;100028.88;5016912;28;20099;-87
2022/04/30 08:00:55;;;;;;;9.18;8.25;;;;;;;18.91;48.37;99942.97;5034805;28;20021;-87
2022/04/30 08:03:21;;;;;;;8.18;7.43;;;;;;;19.48;48.42;100010.50;5017954;28;20469;-87
2022/04/30 08:05:46;;;;;;;11.82;8.30;;;;;;;19.72;47.99;100029.38;5035427;28;20079;-87
2022/04/30 08:08:12;;;;;;;7.30;6.68;;;;;;;19.14;47.86;99918.19;5035434;28;20025;-87
2022/04/30 08:10:37;;;;;;;8.70;6.97;;;;;;;19.77;47.37;99998.19;5035262;28;20029;-87
2022/04/30 08:13:03;;;;;;;8.82;5.75;;;;;;;19.42;46.25;99924.88;5035382;28;20029;-87
2022/04/30 08:15:28;;;;;;;7.13;6.28;;;;;;;19.42;45.94;99909.63;5017458;28;20502;-87
2022/04/30 08:17:54;;;;;;;7.63;4.60;;;;;;;20.14;45.55;100003.47;5017231;28;20464;-87
2022/04/30 08:20:20;;;;;;;6.18;4.50;;;;;;;20.41;44.84;100003.91;5017221;28;20609;-87
2022/04/30 08:22:45;;;;;;;8.25;7.07;;;;;;;20.14;44.40;99948.00;5034897;28;20029;-87
2022/04/30 08:25:11;;;;;;;11.98;9.25;;;;;;;20.67;44.03;100022.25;5017459;28;20116;-88
2022/04/30 08:27:36;;;;;;;9.57;7.68;;;;;;;20.16;43.50;99943.22;5035487;28;20112;-86
2022/04/30 08:30:02;;;;;;;5.60;4.80;;;;;;;19.82;43.23;99919.81;5035229;28;20025;-88
2022/04/30 08:32:28;;;;;;;10.88;6.82;;;;;;;20.33;43.42;100013.09;5034680;28;20037;-85
2022/04/30 08:34:53;;;;;;;4.57;3.78;;;;;;;19.75;43.19;99919.91;5017541;28;20036;-87
2022/04/30 08:37:19;;;;;;;9.18;4.53;;;;;;;19.69;43.44;99902.06;5035183;28;20388;-87
2022/04/30 08:39:45;;;;;;;5.45;4.07;;;;;;;20.03;43.37;99951.44;5034887;28;20025;-87
2022/04/30 08:42:13;;;;;;;5.38;4.03;;;;;;;19.92;42.64;99925.44;5034888;28;20108;-88
2022/04/30 08:44:39;;;;;;;3.90;3.13;;;;;;;20.36;42.24;100004.56;5034634;28;20031;-87
2022/04/30 08:47:05;;;;;;;5.32;2.83;;;;;;;20.04;41.99;99963.78;5034915;28;20028;-87
2022/04/30 08:49:32;;;;;;;4.00;3.08;;;;;;;20.05;41.58;99935.94;5034547;28;20553;-87
2022/04/30 08:51:57;;;;;;;4.30;3.35;;;;;;;20.23;41.08;99945.78;5016911;28;20037;-87
2022/04/30 08:54:22;;;;;;;3.92;2.83;;;;;;;20.54;40.68;99974.19;5034705;28;20563;-87
2022/04/30 08:56:53;;;;;;;6.10;3.95;;;;;;;20.12;40.35;99887.63;5034246;28;20083;-87
2022/04/30 08:59:18;;;;;;;3.30;3.00;;;;;;;20.62;39.68;99936.28;5033940;28;20025;-87
2022/04/30 09:01:49;;;;;;;4.75;3.10;;;;;;;21.20;39.43;99999.84;5033829;28;20014;-87
2022/04/30 09:04:14;;;;;;;3.65;2.83;;;;;;;20.97;38.90;99951.56;5033672;28;20018;-87
2022/04/30 09:06:48;;;;;;;4.00;2.65;;;;;;;21.49;38.24;99998.06;5035269;28;20080;-87
2022/04/30 09:09:24;;;;;;;3.85;2.50;;;;;;;21.66;37.60;99996.28;5035763;28;20018;-87
2022/04/30 09:11:56;;;;;;;4.18;2.90;;;;;;;21.36;37.49;99904.31;5034006;28;20029;-87
2022/04/30 09:14:26;;;;;;;4.80;3.35;;;;;;;21.40;37.62;99957.31;5033510;28;20029;-87
2022/04/30 09:17:05;;;;;;;3.55;2.05;;;;;;;20.30;36.63;99767.66;5015978;28;20022;-87
2022/04/30 09:19:53;;;;;;;3.78;2.47;;;;;;;21.79;36.63;99981.72;5016092;28;20040;-87
2022/04/30 09:22:34;;;;;;;4.00;3.65;;;;;;;21.94;37.15;99976.63;5015695;28;20418;-85
2022/04/30 09:25:04;;;;;;;;;;;;;;;22.08;37.09;99978.00;5034062;28;20021;-86
2022/04/30 09:27:31;;;;;;;2.65;2.45;;;;;;;21.42;36.57;99849.63;5033244;28;20354;-87
2022/04/30 09:29:57;;;;;;;3.08;2.35;;;;;;;22.41;35.88;99965.66;5033116;28;20460;-85
2022/04/30 09:32:26;;;;;;;5.85;3.90;;;;;;;22.39;36.24;99968.56;5015139;28;20087;-86
2022/04/30 09:37:42;;;;;;;3.13;2.78;;;;;;;21.69;36.14;99906.28;5032845;28;20075;-86
2022/04/30 09:40:14;;;;;;;4.93;2.70;;;;;;;21.88;36.59;99967.66;5032858;28;20025;-88
2022/04/30 09:42:44;;;;;;;5.95;3.00;;;;;;;21.90;36.71;99962.03;5032620;28;20037;-87
2022/04/30 09:45:22;;;;;;;2.45;2.25;;;;;;;21.93;35.50;99950.81;5032629;28;20033;-88
2022/04/30 09:47:48;;;;;;;3.90;2.42;;;;;;;21.84;36.05;99915.44;5029004;28;20425;-85
2022/04/30 09:55:54;;;;;;;2.05;1.85;;;;;;;22.65;33.53;99890.91;5009177;28;20040;-85
2022/04/30 09:58:24;;;;;;;4.80;3.03;;;;;;;23.27;34.11;99931.88;5032559;28;20052;-86
2022/04/30 10:00:56;;;;;;;2.97;2.53;;;;;;;23.67;32.73;99947.72;5015255;28;20030;-86
2022/04/30 10:03:25;;;;;;;2.85;2.20;;;;;;;23.88;33.45;99908.31;5015563;28;20268;-86
2022/04/30 10:05:57;;;;;;;2.53;2.33;;;;;;;23.35;32.08;99790.50;5032960;28;20124;-86
2022/04/30 10:08:24;;;;;;;2.60;2.33;;;;;;;23.72;32.89;99884.94;5035455;28;20031;-85
2022/04/30 10:10:57;;;;;;;3.70;2.70;;;;;;;22.96;33.43;99808.66;5032813;28;20029;-86
2022/04/30 10:13:31;;;;;;;4.70;3.25;;;;;;;22.69;34.33;99875.88;5015117;28;20072;-86
2022/04/30 10:16:00;;;;;;;2.40;2.13;;;;;;;22.36;34.33;99863.31;5015018;28;20022;-86
2022/04/30 10:18:35;;;;;;;2.15;1.95;;;;;;;22.60;34.17;99933.91;5032832;28;20108;-86
2022/04/30 10:21:02;;;;;;;4.60;4.18;;;;;;;22.07;34.27;99828.47;5032630;28;20100;-86
2022/04/30 10:23:29;;;;;;;6.57;5.18;;;;;;;22.80;34.09;99928.84;5032811;28;20025;-85
2022/04/30 10:26:06;;;;;;;6.93;6.22;;;;;;;21.90;34.27;99798.06;5032712;28;20522;-85
2022/04/30 10:28:31;;;;;;;8.93;3.45;;;;;;;22.11;34.87;99858.34;5032882;28;20490;-85
2022/04/30 10:31:05;;;;;;;3.88;3.03;;;;;;;22.30;35.42;99915.44;5015172;28;20034;-85
2022/04/30 10:33:32;;;;;;;3.38;2.17;;;;;;;21.89;35.68;99866.31;5015623;28;20017;-86
2022/04/30 10:36:11;;;;;;;3.05;2.25;;;;;;;22.14;35.02;99869.44;5015609;28;20426;-85
2022/04/30 10:38:38;;;;;;;3.20;2.35;;;;;;;22.67;35.00;99924.59;5037138;28;20021;-86
2022/04/30 10:41:08;;;;;;;4.35;2.53;;;;;;;22.50;34.82;99864.59;5051603;28;20022;-86
2022/04/30 10:43:38;;;;;;;2.67;2.35;;;;;;;22.44;34.80;99854.84;5049512;28;20041;-85
2022/04/30 10:46:17;;;;;;;3.67;2.55;;;;;;;22.75;35.23;99917.97;5050717;28;20018;-85
2022/04/30 10:48:42;;;;;;;3.97;2.17;;;;;;;22.57;34.94;99872.50;5034528;28;20163;-86
2022/04/30 10:51:07;;;;;;;2.28;2.03;;;;;;;22.85;35.00;99914.63;5032234;28;20097;-87
2022/04/30 10:53:34;;;;;;;2.60;1.98;;;;;;;22.49;34.42;99796.53;5014646;28;20121;-87
2022/04/30 10:56:01;;;;;;;2.47;2.10;;;;;;;22.35;34.63;99805.22;5032093;28;20033;-87
2022/04/30 10:58:28;;;;;;;2.63;2.13;;;;;;;22.45;34.43;99862.66;5032242;28;20080;-86
2022/04/30 11:00:53;;;;;;;2.50;2.30;;;;;;;22.76;33.81;99871.94;5032499;28;20026;-87
2022/04/30 11:03:26;;;;;;;3.30;2.03;;;;;;;22.80;32.53;99788.84;5032216;28;20032;-86
2022/04/30 11:05:51;;;;;;;5.15;3.53;;;;;;;23.12;32.83;99816.69;5014034;28;20028;-86
2022/04/30 11:08:17;;;;;;;3.70;2.67;;;;;;;23.32;32.38;99809.88;5030971;28;20033;-86
2022/04/30 11:10:50;;;;;;;3.63;3.33;;;;;;;24.37;32.12;99908.19;5031359;28;20104;-86
2022/04/30 11:13:16;;;;;;;2.80;2.13;;;;;;;24.69;31.31;99905.44;5031926;28;20024;-87
2022/04/30 11:15:41;;;;;;;2.13;1.92;;;;;;;24.33;31.09;99789.13;5031843;28;20022;-86
2022/04/30 11:18:07;;;;;;;2.80;1.92;;;;;;;24.13;31.49;99794.38;5014252;28;20415;-86
2022/04/30 11:20:32;;;;;;;16.27;14.60;;;;;;;24.00;31.25;99792.97;5014117;28;20056;-86
2022/04/30 11:23:02;;;;;;;5.68;4.47;;;;;;;24.84;31.08;99892.00;5014165;28;20021;-86
2022/04/30 11:25:33;;;;;;;3.60;3.30;;;;;;;24.58;30.81;99895.66;5014076;28;20053;-87
2022/04/30 11:27:58;;;;;;;;;;;;;;;24.10;31.24;99881.25;5032266;28;20029;-87
2022/04/30 11:30:24;;;;;;;3.97;3.33;;;;;;;24.24;31.67;99849.22;5030585;28;19908;-87
2022/04/30 11:32:50;;;;;;;3.42;2.17;;;;;;;24.14;31.14;99771.75;5031259;28;20552;-85
2022/04/30 11:35:16;;;;;;;2.50;2.25;;;;;;;25.22;30.79;99880.00;5031322;28;20120;-86
2022/04/30 11:37:42;;;;;;;4.05;2.05;;;;;;;25.09;29.98;99785.94;5013618;28;20219;-87
2022/04/30 11:40:09;;;;;;;3.42;3.13;;;;;;;25.66;29.76;99841.75;5031069;28;20036;-85
2022/04/30 11:42:34;;;;;;;3.33;2.85;;;;;;;25.91;29.30;99878.81;5013356;28;20044;-85
2022/04/30 11:45:00;;;;;;;5.40;4.90;;;;;;;25.95;29.15;99825.78;5031086;28;20474;-86
2022/04/30 11:47:26;;;;;;;3.20;2.90;;;;;;;26.14;28.70;99817.94;5013770;28;20029;-85
2022/04/30 11:50:06;;;;;;;3.25;2.95;;;;;;;25.98;28.28;99788.16;5013903;28;20029;-85
2022/04/30 11:52:32;;;;;;;3.95;2.55;;;;;;;26.11;29.26;99854.47;5031846;28;20528;-87
2022/04/30 11:55:01;;;;;;;2.70;2.50;;;;;;;25.36;30.02;99820.06;5031732;28;20025;-86
2022/04/30 11:57:26;;;;;;;2.58;2.30;;;;;;;24.70;30.64;99793.66;5031462;28;20038;-86
2022/04/30 11:59:55;;;;;;;8.57;2.50;;;;;;;24.66;30.23;99811.44;5031455;28;20505;-86
2022/04/30 12:02:21;;;;;;;3.45;3.15;;;;;;;25.15;30.28;99863.25;5031704;28;20025;-86